Terminal Aerodrome Forecast
Issued by NWS Cleveland, OH

Home | Current Version | Previous Version | Text Only | Print | Product List | Glossary On
Versions: 1 2 3 4 5 6 7 8 9 10 11 12 13 14 15 16 17 18
000
FTUS41 KCLE 211730
TAFCAK
TAF
KCAK 211730Z 2118/2218 28012G18KT P6SM BKN035
     FM220000 32006KT P6SM OVC030
     FM221000 01006KT P6SM OVC018=

USA.gov is the U.S. government's official web portal to all federal, state and local government web resources and services.